Time;durP1;ratioP1;P1;durP2;ratioP2;P2;SDS_P1;SDS_P2;PMS_P1;PMS_P2;Temp;Humidity;BMP_temperature;BMP_pressure;BME280_temperature;BME280_humidity;BME280_pressure;Samples;Min_cycle;Max_cycle;Signal;HPM_P1;HPM_P2
2022/06/30 00:00:39;;;;;;;14.53;11.10;;;23.70;48.30;;;;;;5029706;28;20645;-69
2022/06/30 00:03:05;;;;;;;15.17;11.40;;;23.80;48.40;;;;;;5030264;28;20176;-67
2022/06/30 00:05:31;;;;;;;12.60;11.20;;;23.60;48.80;;;;;;5030877;28;20701;-68
2022/06/30 00:07:56;;;;;;;18.37;11.47;;;23.60;49.20;;;;;;5030627;28;20202;-68
2022/06/30 00:10:22;;;;;;;18.50;12.33;;;23.70;48.70;;;;;;5030465;28;20851;-69
2022/06/30 00:12:48;;;;;;;15.77;12.27;;;23.70;49.20;;;;;;5023570;28;20599;-69
2022/06/30 00:15:14;;;;;;;15.10;11.60;;;23.70;48.80;;;;;;5029746;28;20206;-68
2022/06/30 00:17:40;;;;;;;15.40;11.70;;;23.50;50.40;;;;;;5027185;28;20179;-68
2022/06/30 00:20:06;;;;;;;18.70;11.77;;;23.40;49.80;;;;;;5011450;28;20463;-69
2022/06/30 00:22:32;;;;;;;15.53;11.17;;;23.40;49.60;;;;;;5025668;28;20534;-69
2022/06/30 00:24:58;;;;;;;16.13;12.10;;;23.40;49.70;;;;;;5028848;28;20974;-69
2022/06/30 00:27:23;;;;;;;16.17;12.20;;;23.40;49.40;;;;;;5031055;28;20616;-68
2022/06/30 00:29:49;;;;;;;14.33;11.10;;;23.50;49.10;;;;;;5031455;28;20203;-69
2022/06/30 00:32:14;;;;;;;15.93;11.00;;;23.30;49.00;;;;;;5029876;28;20176;-68
2022/06/30 00:34:40;;;;;;;13.00;11.10;;;23.40;49.50;;;;;;5026562;28;20198;-69
2022/06/30 00:37:06;;;;;;;15.00;11.70;;;23.40;49.00;;;;;;5011225;28;20201;-68
2022/06/30 00:39:31;;;;;;;16.80;10.77;;;23.40;49.60;;;;;;5011573;28;20548;-69
2022/06/30 00:41:57;;;;;;;15.97;10.97;;;22.90;50.30;;;;;;5025006;28;20800;-69
2022/06/30 00:44:23;;;;;;;14.90;11.17;;;22.90;51.50;;;;;;5030103;28;20307;-68
2022/06/30 00:46:49;;;;;;;16.40;11.87;;;22.80;51.60;;;;;;5032304;28;20207;-69
2022/06/30 00:49:17;;;;;;;17.70;11.57;;;22.90;52.60;;;;;;5033041;28;20455;-68
2022/06/30 00:51:43;;;;;;;15.13;11.47;;;23.10;52.10;;;;;;5029315;28;20507;-67
2022/06/30 00:54:11;;;;;;;19.50;12.73;;;22.90;52.00;;;;;;5033504;28;20597;-67
2022/06/30 00:56:41;;;;;;;17.83;12.57;;;22.90;52.10;;;;;;5025128;28;20179;-66
2022/06/30 00:59:08;;;;;;;20.10;16.10;;;23.10;52.00;;;;;;5031923;28;20489;-67
2022/06/30 01:01:36;;;;;;;25.67;16.83;;;23.10;51.00;;;;;;5037775;28;20450;-68
2022/06/30 01:04:03;;;;;;;22.40;16.50;;;22.90;51.70;;;;;;5025699;28;20550;-67
2022/06/30 01:06:29;;;;;;;28.10;16.70;;;23.00;51.90;;;;;;5033478;28;20431;-68
2022/06/30 01:08:57;;;;;;;20.60;16.37;;;23.10;52.30;;;;;;5034112;28;20454;-68
2022/06/30 01:14:07;;;;;;;19.47;15.13;;;23.30;50.50;;;;;;5033916;28;21003;-68
2022/06/30 01:16:32;;;;;;;20.17;15.07;;;23.10;50.70;;;;;;5032123;28;20442;-67
2022/06/30 01:18:58;;;;;;;30.03;15.40;;;23.00;50.80;;;;;;5033563;28;20174;-68
2022/06/30 01:21:27;;;;;;;22.10;14.53;;;23.00;50.70;;;;;;5026820;28;20603;-68
2022/06/30 01:23:53;;;;;;;21.33;13.57;;;22.90;51.10;;;;;;5014055;28;20693;-68
2022/06/30 01:26:21;;;;;;;22.80;12.73;;;23.10;51.00;;;;;;5014620;28;20409;-68
2022/06/30 01:28:47;;;;;;;22.40;13.30;;;23.20;49.60;;;;;;5032529;28;20212;-68
2022/06/30 01:31:13;;;;;;;17.47;13.10;;;23.00;50.40;;;;;;5031993;28;20789;-68
2022/06/30 01:33:38;;;;;;;17.50;12.97;;;22.80;51.10;;;;;;5029222;28;20254;-68
2022/06/30 01:36:04;;;;;;;23.83;13.43;;;22.80;50.80;;;;;;5033574;28;20259;-68
2022/06/30 01:38:30;;;;;;;20.30;12.10;;;22.80;51.50;;;;;;5033032;28;20192;-68
2022/06/30 01:40:55;;;;;;;20.53;13.20;;;22.70;51.40;;;;;;5032666;28;20761;-68
2022/06/30 01:43:21;;;;;;;20.30;13.03;;;22.60;52.50;;;;;;5032659;28;20237;-68
2022/06/30 01:45:46;;;;;;;17.73;13.27;;;22.60;53.30;;;;;;5032991;28;20202;-68
2022/06/30 01:48:12;;;;;;;19.20;12.67;;;22.50;52.70;;;;;;5033113;28;20663;-68
2022/06/30 01:50:38;;;;;;;21.83;12.90;;;22.50;53.00;;;;;;5033616;28;20172;-68
2022/06/30 01:53:04;;;;;;;22.73;13.30;;;22.60;52.80;;;;;;5028716;28;20187;-68
2022/06/30 01:55:29;;;;;;;17.93;12.40;;;22.50;52.30;;;;;;5029949;28;20590;-67
2022/06/30 01:57:55;;;;;;;19.27;12.67;;;22.40;53.60;;;;;;5032064;28;20181;-68
2022/06/30 02:00:26;;;;;;;14.80;12.70;;;22.30;53.90;;;;;;5033432;28;20400;-68
2022/06/30 02:02:53;;;;;;;19.10;12.13;;;22.60;52.30;;;;;;5031233;28;20445;-68
2022/06/30 02:05:19;;;;;;;16.30;12.20;;;22.80;51.00;;;;;;5030604;28;20466;-68
2022/06/30 02:07:45;;;;;;;20.00;12.93;;;22.80;51.50;;;;;;5032377;28;20542;-68
2022/06/30 02:10:18;;;;;;;18.60;12.40;;;22.60;52.20;;;;;;5031952;28;20486;-68
2022/06/30 02:12:45;;;;;;;17.67;12.53;;;22.60;52.60;;;;;;5026290;28;20436;-68
2022/06/30 02:15:37;;;;;;;14.37;12.20;;;22.60;52.30;;;;;;5021605;28;20850;-68
2022/06/30 02:18:05;;;;;;;24.33;13.17;;;22.50;53.20;;;;;;5008400;28;20431;-68
2022/06/30 02:20:32;;;;;;;19.10;13.23;;;22.50;52.50;;;;;;5012016;28;20418;-69
2022/06/30 02:22:59;;;;;;;18.97;12.70;;;22.40;53.40;;;;;;5014250;28;20439;-68
2022/06/30 02:25:26;;;;;;;17.43;12.10;;;22.30;53.00;;;;;;5030087;28;20438;-68
2022/06/30 02:27:53;;;;;;;20.20;12.20;;;22.30;54.10;;;;;;5031938;28;20498;-67
2022/06/30 02:30:18;;;;;;;23.00;13.00;;;22.30;53.80;;;;;;5031967;28;20485;-68
2022/06/30 02:32:45;;;;;;;16.93;12.90;;;22.30;53.50;;;;;;5030867;28;20433;-68
2022/06/30 02:35:11;;;;;;;17.40;12.30;;;22.30;53.80;;;;;;5031373;28;20442;-68
2022/06/30 02:37:37;;;;;;;19.53;12.97;;;22.30;53.60;;;;;;5029817;28;20804;-68
2022/06/30 02:40:04;;;;;;;23.00;12.63;;;22.40;53.20;;;;;;5031709;28;20455;-69
2022/06/30 02:42:29;;;;;;;15.80;12.57;;;22.30;53.10;;;;;;5028395;28;20479;-69
2022/06/30 02:44:55;;;;;;;18.50;12.30;;;22.30;53.30;;;;;;5030641;28;20464;-68
2022/06/30 02:47:20;;;;;;;15.30;12.33;;;22.20;53.40;;;;;;5026664;28;20274;-68
2022/06/30 02:49:46;;;;;;;23.07;13.37;;;22.20;53.90;;;;;;5031240;28;20179;-68
2022/06/30 02:52:12;;;;;;;15.40;12.63;;;22.00;54.90;;;;;;5032352;28;20169;-68
2022/06/30 02:54:37;;;;;;;15.57;12.60;;;22.30;52.30;;;;;;5031525;28;20189;-69
2022/06/30 02:57:03;;;;;;;20.63;13.27;;;22.20;52.80;;;;;;5029255;28;20186;-69
2022/06/30 02:59:29;;;;;;;19.33;13.00;;;22.10;53.00;;;;;;5020752;28;20221;-68
2022/06/30 03:01:55;;;;;;;22.50;17.40;;;22.00;54.50;;;;;;5031278;28;20509;-68
2022/06/30 03:04:21;;;;;;;19.80;13.70;;;22.00;53.90;;;;;;4991947;28;1138641;-69
2022/06/30 03:06:47;;;;;;;17.53;14.33;;;21.90;54.40;;;;;;5032355;28;20190;-69
2022/06/30 03:09:13;;;;;;;24.83;13.23;;;21.80;54.40;;;;;;5029377;28;20472;-69
2022/06/30 03:11:39;;;;;;;27.53;14.70;;;21.90;54.70;;;;;;5032050;28;20430;-68
2022/06/30 03:14:05;;;;;;;17.83;13.47;;;22.00;54.30;;;;;;5031906;28;20194;-69
2022/06/30 03:16:31;;;;;;;24.30;13.13;;;22.00;54.00;;;;;;5032092;28;20493;-68
2022/06/30 03:18:57;;;;;;;21.40;14.10;;;22.20;53.30;;;;;;5022876;28;20466;-68
2022/06/30 03:21:22;;;;;;;17.57;13.50;;;22.00;54.10;;;;;;5031371;28;20568;-69
2022/06/30 03:23:48;;;;;;;17.93;12.83;;;21.90;54.50;;;;;;5031520;28;20420;-69
2022/06/30 03:26:14;;;;;;;17.63;14.10;;;21.90;53.70;;;;;;5029928;28;20621;-69
2022/06/30 03:28:40;;;;;;;17.77;13.83;;;22.00;54.50;;;;;;5030996;28;20540;-68
2022/06/30 03:31:05;;;;;;;20.90;13.90;;;21.90;54.20;;;;;;5027586;28;20190;-69
2022/06/30 03:33:31;;;;;;;17.53;13.57;;;21.80;54.30;;;;;;5031658;28;20173;-69
2022/06/30 03:35:57;;;;;;;18.23;13.10;;;21.80;53.90;;;;;;5018705;28;20189;-69
2022/06/30 03:38:23;;;;;;;20.93;14.03;;;21.90;54.10;;;;;;5012630;28;20183;-68
2022/06/30 03:40:48;;;;;;;17.67;13.80;;;22.00;54.00;;;;;;5029526;28;20427;-68
2022/06/30 03:43:16;;;;;;;19.30;13.27;;;21.90;54.00;;;;;;5031082;28;20247;-68
2022/06/30 03:45:42;;;;;;;25.87;15.10;;;21.90;54.70;;;;;;5025840;28;20208;-68
2022/06/30 03:48:08;;;;;;;21.53;14.50;;;22.00;53.50;;;;;;5029541;28;20549;-68
2022/06/30 03:50:34;;;;;;;19.37;13.90;;;21.90;54.70;;;;;;5025368;28;20511;-69
2022/06/30 03:53:01;;;;;;;21.43;14.73;;;21.80;55.20;;;;;;5031500;28;20185;-69
2022/06/30 03:55:27;;;;;;;22.10;15.37;;;21.70;55.40;;;;;;5031362;28;20188;-68
2022/06/30 03:57:53;;;;;;;20.87;14.03;;;21.70;55.60;;;;;;5029760;28;20509;-68
2022/06/30 04:00:19;;;;;;;24.80;14.33;;;21.70;55.20;;;;;;5061174;22;20930;-70
2022/06/30 04:02:44;;;;;;;18.53;13.80;;;21.80;54.70;;;;;;5047475;28;20457;-71
2022/06/30 04:05:10;;;;;;;23.60;15.67;;;21.90;55.10;;;;;;5061055;28;20415;-71
2022/06/30 04:07:43;;;;;;;24.60;15.60;;;21.80;54.60;;;;;;5059012;28;20183;-71
2022/06/30 04:10:10;;;;;;;25.23;17.50;;;21.60;55.60;;;;;;5054457;28;20657;-71
2022/06/30 04:12:36;;;;;;;30.30;20.40;;;21.50;56.00;;;;;;5049171;28;20472;-70
2022/06/30 04:15:01;;;;;;;27.57;20.67;;;21.50;56.20;;;;;;5026439;28;20434;-70
2022/06/30 04:17:27;;;;;;;29.00;21.97;;;21.50;56.20;;;;;;5053614;28;20179;-70
2022/06/30 04:19:53;;;;;;;27.20;20.90;;;21.60;56.10;;;;;;5059107;28;20211;-71
2022/06/30 04:22:18;;;;;;;28.40;21.57;;;21.70;55.60;;;;;;5053384;28;20590;-70
2022/06/30 04:24:44;;;;;;;34.27;22.27;;;21.70;56.30;;;;;;5052915;28;20174;-70
2022/06/30 04:27:09;;;;;;;30.03;22.07;;;21.90;56.40;;;;;;5053703;28;20175;-70
2022/06/30 04:29:35;;;;;;;21.57;16.87;;;22.00;55.20;;;;;;5069398;28;20218;-71
2022/06/30 04:34:45;;;;;;;29.97;18.93;;;22.00;55.40;;;;;;5074530;28;20183;-70
2022/06/30 04:37:11;;;;;;;27.63;18.30;;;22.00;55.50;;;;;;5054111;28;20439;-70
2022/06/30 04:39:36;;;;;;;29.80;19.87;;;22.00;54.90;;;;;;5055270;28;20701;-70
2022/06/30 04:42:02;;;;;;;28.10;17.07;;;21.90;54.70;;;;;;5053813;28;20170;-70
2022/06/30 04:44:27;;;;;;;26.93;18.37;;;21.50;56.60;;;;;;5054546;28;20173;-70
2022/06/30 04:46:53;;;;;;;29.63;21.57;;;21.50;56.70;;;;;;5047530;28;20196;-70
2022/06/30 04:49:19;;;;;;;32.40;22.27;;;21.50;57.00;;;;;;5053553;28;20646;-70
2022/06/30 04:51:44;;;;;;;29.83;19.73;;;21.70;56.20;;;;;;5058716;28;20185;-70
2022/06/30 04:54:10;;;;;;;25.90;18.47;;;21.70;55.60;;;;;;5054085;28;20173;-70
2022/06/30 04:56:35;;;;;;;27.60;18.27;;;21.50;56.30;;;;;;5054021;28;20229;-70
2022/06/30 04:59:01;;;;;;;25.03;18.37;;;21.50;58.30;;;;;;5051754;28;20651;-70
2022/06/30 05:01:27;;;;;;;23.57;16.43;;;21.40;57.30;;;;;;5053366;28;20259;-70
2022/06/30 05:03:52;;;;;;;34.23;16.40;;;21.30;59.10;;;;;;5043664;28;20274;-70
2022/06/30 05:06:18;;;;;;;28.60;16.13;;;21.10;59.70;;;;;;5053608;28;20644;-71
2022/06/30 05:08:43;;;;;;;23.03;13.50;;;21.20;59.80;;;;;;5047489;28;20205;-70
2022/06/30 05:11:09;;;;;;;25.00;13.23;;;20.70;63.00;;;;;;5058821;28;20193;-70
2022/06/30 05:13:35;;;;;;;29.93;14.30;;;20.80;65.70;;;;;;5055852;28;20289;-70
2022/06/30 05:16:02;;;;;;;18.03;13.77;;;20.70;63.20;;;;;;5053621;28;20186;-70
2022/06/30 05:18:28;;;;;;;22.63;14.37;;;20.40;66.90;;;;;;5051763;28;20267;-70
2022/06/30 05:20:53;;;;;;;21.17;13.80;;;21.00;64.40;;;;;;5053113;28;20520;-70
2022/06/30 05:23:19;;;;;;;20.10;14.33;;;21.80;59.60;;;;;;5054276;28;20590;-70
2022/06/30 05:28:29;;;;;;;21.87;14.00;;;22.50;54.70;;;;;;5051756;28;20294;-70
2022/06/30 05:30:57;;;;;;;24.40;13.00;;;22.50;55.10;;;;;;5049940;28;20525;-71
2022/06/30 05:33:23;;;;;;;28.10;13.87;;;22.30;55.40;;;;;;5048079;28;20202;-70
2022/06/30 05:35:50;;;;;;;29.57;13.20;;;22.30;55.40;;;;;;5053240;28;20414;-70
2022/06/30 05:38:16;;;;;;;19.10;12.17;;;22.30;54.10;;;;;;5053194;28;20409;-70
2022/06/30 05:40:42;;;;;;;28.50;13.27;;;22.70;52.70;;;;;;5053217;28;20805;-70
2022/06/30 05:43:11;;;;;;;18.73;12.53;;;22.90;53.60;;;;;;5052033;28;20211;-70
2022/06/30 05:45:37;;;;;;;18.27;12.70;;;23.00;53.30;;;;;;5053207;28;20202;-72
2022/06/30 05:48:03;;;;;;;16.37;12.77;;;23.00;52.90;;;;;;5053129;28;20461;-71
2022/06/30 05:50:30;;;;;;;19.97;12.63;;;23.20;51.10;;;;;;5052886;28;20419;-70
2022/06/30 05:52:56;;;;;;;20.43;12.80;;;23.20;50.80;;;;;;5046396;28;20184;-71
2022/06/30 05:55:21;;;;;;;17.50;12.17;;;23.20;51.90;;;;;;5047893;28;20436;-71
2022/06/30 05:57:57;;;;;;;18.63;13.10;;;23.30;51.50;;;;;;5051538;28;20952;-71
2022/06/30 06:00:25;;;;;;;18.47;12.30;;;23.10;50.90;;;;;;5044308;28;20209;-70
2022/06/30 06:02:50;;;;;;;20.07;12.03;;;23.00;53.00;;;;;;5039479;28;20435;-71
2022/06/30 06:05:16;;;;;;;15.80;12.13;;;23.10;51.80;;;;;;5047391;28;20438;-71
2022/06/30 06:07:42;;;;;;;21.30;12.43;;;22.90;50.90;;;;;;5050567;28;20679;-71
2022/06/30 06:10:09;;;;;;;17.90;14.00;;;23.20;53.00;;;;;;5044870;28;20699;-71
2022/06/30 06:12:35;;;;;;;16.10;11.50;;;23.50;50.20;;;;;;5041481;28;21165;-71
2022/06/30 06:15:00;;;;;;;18.10;12.60;;;23.60;49.20;;;;;;5037276;28;20436;-70
2022/06/30 06:17:26;;;;;;;17.30;13.57;;;23.50;49.40;;;;;;5038565;28;20523;-71
2022/06/30 06:19:52;;;;;;;27.57;14.13;;;23.70;49.30;;;;;;5037587;28;20203;-71
2022/06/30 06:22:17;;;;;;;18.80;13.70;;;23.50;49.30;;;;;;5048094;28;20256;-70
2022/06/30 06:24:43;;;;;;;19.27;13.30;;;23.30;49.00;;;;;;5052392;28;20178;-70
2022/06/30 06:27:08;;;;;;;27.40;15.60;;;23.10;49.90;;;;;;5052391;28;20182;-70
2022/06/30 06:29:34;;;;;;;17.80;14.73;;;23.30;51.40;;;;;;5043252;28;20264;-70
2022/06/30 06:31:59;;;;;;;24.20;13.50;;;23.00;50.90;;;;;;5042674;28;20609;-72
2022/06/30 06:34:25;;;;;;;23.33;13.63;;;23.10;51.50;;;;;;5043733;28;20183;-70
2022/06/30 06:36:51;;;;;;;21.77;13.30;;;23.00;52.40;;;;;;5038706;28;20188;-70
2022/06/30 06:39:16;;;;;;;16.13;12.70;;;23.20;50.80;;;;;;5044681;28;20199;-71
2022/06/30 06:41:42;;;;;;;21.33;11.73;;;23.50;49.80;;;;;;5048286;28;20661;-70
2022/06/30 06:44:07;;;;;;;19.00;12.07;;;23.90;48.70;;;;;;5038363;28;20236;-70
2022/06/30 06:46:33;;;;;;;21.67;13.67;;;24.50;46.70;;;;;;5050674;28;20175;-71
2022/06/30 06:49:01;;;;;;;25.30;12.17;;;23.60;48.00;;;;;;5040807;28;20200;-70
2022/06/30 06:51:27;;;;;;;27.63;12.27;;;23.30;50.60;;;;;;5053531;28;20734;-71
2022/06/30 06:53:53;;;;;;;26.17;14.03;;;23.80;49.40;;;;;;5050524;28;20518;-70
2022/06/30 06:56:19;;;;;;;20.97;12.90;;;23.80;47.60;;;;;;5037208;28;20510;-71
2022/06/30 06:58:45;;;;;;;27.03;12.87;;;23.50;49.60;;;;;;5043289;28;20520;-70
2022/06/30 07:01:10;;;;;;;16.60;11.67;;;24.20;47.20;;;;;;5048975;28;21103;-71
2022/06/30 07:03:37;;;;;;;18.57;11.90;;;24.50;46.60;;;;;;5042750;28;20524;-70
2022/06/30 07:06:04;;;;;;;26.40;12.90;;;24.40;45.70;;;;;;5041756;28;20232;-71
2022/06/30 07:08:29;;;;;;;16.10;11.30;;;24.30;46.40;;;;;;5037504;28;20466;-71
2022/06/30 07:10:56;;;;;;;16.40;12.80;;;24.60;45.90;;;;;;5033907;28;20474;-71
2022/06/30 07:13:23;;;;;;;18.60;12.87;;;24.60;45.90;;;;;;5049011;28;20183;-70
2022/06/30 07:15:49;;;;;;;19.50;13.10;;;24.50;45.90;;;;;;5036442;28;20435;-70
2022/06/30 07:18:15;;;;;;;21.60;11.83;;;24.30;47.00;;;;;;5043675;28;20502;-70
2022/06/30 07:20:40;;;;;;;27.43;12.30;;;24.00;47.70;;;;;;5037272;28;20204;-71
2022/06/30 07:23:06;;;;;;;17.87;11.80;;;24.30;47.00;;;;;;5034841;28;20262;-71
2022/06/30 07:25:32;;;;;;;20.40;11.20;;;24.40;47.10;;;;;;5047056;28;20175;-71
2022/06/30 07:27:57;;;;;;;20.87;11.90;;;24.70;46.00;;;;;;5041668;28;20207;-71
2022/06/30 07:30:23;;;;;;;17.40;11.67;;;24.90;45.50;;;;;;5038331;28;20245;-70
2022/06/30 07:32:49;;;;;;;22.60;12.10;;;25.10;46.40;;;;;;5047851;28;20529;-70
2022/06/30 07:35:15;;;;;;;21.37;12.00;;;25.30;44.50;;;;;;5042539;28;20450;-70
2022/06/30 07:37:40;;;;;;;18.03;11.10;;;25.20;44.10;;;;;;5049720;28;20172;-70
2022/06/30 07:40:07;;;;;;;19.10;11.53;;;25.50;43.50;;;;;;5037808;28;20196;-71
2022/06/30 07:42:33;;;;;;;19.50;11.53;;;25.10;44.50;;;;;;5051073;28;20167;-72
2022/06/30 07:44:59;;;;;;;20.77;10.53;;;25.10;45.30;;;;;;5052016;28;20917;-70
2022/06/30 07:47:25;;;;;;;17.40;10.47;;;25.60;43.60;;;;;;5051443;28;20179;-70
2022/06/30 07:49:51;;;;;;;21.63;11.13;;;25.80;44.90;;;;;;5050923;28;20204;-70
2022/06/30 07:52:17;;;;;;;21.43;11.20;;;25.30;46.60;;;;;;5051297;28;20430;-70
2022/06/30 07:54:42;;;;;;;29.00;10.30;;;25.10;46.40;;;;;;5050849;28;20406;-71
2022/06/30 07:57:08;;;;;;;17.87;10.57;;;25.80;43.90;;;;;;5054503;28;20199;-72
2022/06/30 07:59:34;;;;;;;14.90;10.40;;;25.90;44.20;;;;;;5054763;28;20200;-70
2022/06/30 08:02:00;;;;;;;15.53;10.80;;;26.00;43.90;;;;;;5057542;28;20179;-71
2022/06/30 08:04:26;;;;;;;18.20;10.07;;;25.60;44.40;;;;;;5074756;28;20522;-70
2022/06/30 08:06:51;;;;;;;20.63;10.77;;;25.70;46.00;;;;;;5075247;28;20488;-71
2022/06/30 08:09:17;;;;;;;14.10;10.60;;;26.00;45.00;;;;;;5057176;28;20669;-70
2022/06/30 08:11:43;;;;;;;12.03;9.60;;;26.10;44.50;;;;;;5074960;28;20248;-72
2022/06/30 08:14:09;;;;;;;17.60;10.60;;;26.10;44.30;;;;;;5072808;28;20191;-71
2022/06/30 08:16:34;;;;;;;16.13;9.50;;;26.00;43.60;;;;;;5055812;28;20192;-70
2022/06/30 08:19:00;;;;;;;17.43;10.40;;;26.50;42.70;;;;;;5054631;28;20178;-70
2022/06/30 08:21:26;;;;;;;20.50;10.40;;;26.40;43.80;;;;;;5055055;28;20199;-70
2022/06/30 08:23:51;;;;;;;15.27;10.27;;;26.40;43.30;;;;;;5054559;28;20635;-71
2022/06/30 08:26:17;;;;;;;15.40;9.23;;;26.20;43.10;;;;;;5055536;28;20642;-71
2022/06/30 08:28:42;;;;;;;31.63;10.27;;;27.00;41.80;;;;;;5054740;28;20253;-69
2022/06/30 08:31:08;;;;;;;16.23;9.37;;;27.00;39.80;;;;;;5054384;28;20242;-70
2022/06/30 08:33:34;;;;;;;23.63;9.60;;;27.20;41.40;;;;;;5054985;28;20176;-70
2022/06/30 08:35:59;;;;;;;21.83;9.30;;;27.70;40.40;;;;;;5057277;28;20716;-71
2022/06/30 08:38:25;;;;;;;18.17;9.03;;;28.20;38.30;;;;;;5074739;28;20186;-72
2022/06/30 08:43:36;;;;;;;16.37;8.93;;;28.50;37.90;;;;;;5074477;28;20257;-71
2022/06/30 08:46:02;;;;;;;16.30;8.63;;;28.70;38.20;;;;;;5073944;28;20498;-71
2022/06/30 08:48:28;;;;;;;15.37;9.07;;;28.90;35.90;;;;;;5056135;28;20250;-71
2022/06/30 08:50:59;;;;;;;13.23;8.70;;;28.90;34.20;;;;;;5070204;28;20969;-71
2022/06/30 08:53:30;;;;;;;21.10;9.00;;;28.70;36.50;;;;;;5074177;28;20504;-71
2022/06/30 08:55:56;;;;;;;19.87;9.50;;;28.80;35.40;;;;;;5073984;28;20473;-72
2022/06/30 08:58:23;;;;;;;16.10;9.23;;;28.40;36.30;;;;;;5062079;28;20433;-70
2022/06/30 09:00:51;;;;;;;18.50;8.80;;;28.20;36.70;;;;;;5053209;28;20541;-71
2022/06/30 09:03:17;;;;;;;15.50;8.27;;;28.40;36.70;;;;;;5053985;28;20448;-71
2022/06/30 09:05:48;;;;;;;12.07;8.50;;;28.50;36.30;;;;;;5053870;28;20410;-71
2022/06/30 09:08:16;;;;;;;17.37;9.77;;;28.70;35.70;;;;;;5057564;28;20670;-71
2022/06/30 09:10:53;;;;;;;19.90;9.40;;;28.90;37.00;;;;;;5073644;28;20495;-74
2022/06/30 09:13:19;;;;;;;14.13;9.10;;;28.70;34.00;;;;;;5073863;28;20390;-71
2022/06/30 09:15:45;;;;;;;10.83;8.70;;;28.50;36.20;;;;;;5073537;28;20558;-71
2022/06/30 09:18:22;;;;;;;15.13;8.90;;;28.80;36.00;;;;;;5074009;28;20175;-71
2022/06/30 09:20:48;;;;;;;12.77;9.30;;;29.10;33.00;;;;;;5059410;28;20449;-70
2022/06/30 09:23:20;;;;;;;27.23;10.17;;;28.20;36.00;;;;;;5073658;28;20482;-71
2022/06/30 09:25:48;;;;;;;27.53;10.53;;;28.80;37.80;;;;;;5073420;28;20183;-72
2022/06/30 09:28:14;;;;;;;14.17;8.40;;;28.90;35.20;;;;;;5073634;28;20441;-71
2022/06/30 09:30:40;;;;;;;19.27;8.20;;;29.30;33.70;;;;;;5060380;28;20496;-71
2022/06/30 09:33:07;;;;;;;18.67;8.60;;;29.50;32.50;;;;;;5052965;28;20675;-71
2022/06/30 09:35:33;;;;;;;11.93;8.33;;;29.40;34.10;;;;;;5053788;28;20842;-72
2022/06/30 09:38:12;;;;;;;12.40;7.60;;;29.10;32.90;;;;;;5053237;28;20414;-71
2022/06/30 09:43:31;;;;;;;9.00;7.73;;;29.30;33.20;;;;;;5033614;28;20494;-70
2022/06/30 09:45:57;;;;;;;19.40;8.30;;;29.20;32.80;;;;;;5033094;28;20406;-72
2022/06/30 09:48:26;;;;;;;17.67;7.90;;;28.50;35.80;;;;;;5033797;28;20454;-71
2022/06/30 09:51:03;;;;;;;15.50;7.97;;;28.70;34.80;;;;;;5035916;28;20196;-70
2022/06/30 09:53:30;;;;;;;16.00;8.27;;;28.60;33.50;;;;;;5072934;28;20411;-70
2022/06/30 09:55:56;;;;;;;21.43;8.60;;;28.20;35.10;;;;;;5072857;28;20429;-71
2022/06/30 09:58:30;;;;;;;17.53;8.30;;;28.90;34.90;;;;;;5073049;28;20409;-71
2022/06/30 10:00:57;;;;;;;16.57;8.80;;;29.80;33.10;;;;;;5070402;28;20970;-70
2022/06/30 10:03:23;;;;;;;16.03;7.63;;;29.80;32.40;;;;;;5054679;28;20456;-72
2022/06/30 10:06:06;;;;;;;13.70;7.20;;;30.00;31.50;;;;;;5052483;28;20416;-71
2022/06/30 10:08:32;;;;;;;19.43;7.90;;;30.10;29.90;;;;;;5052896;28;20245;-71
2022/06/30 10:10:59;;;;;;;26.07;7.60;;;29.40;31.20;;;;;;5052421;28;20838;-71
2022/06/30 10:13:26;;;;;;;12.37;7.43;;;29.50;31.10;;;;;;5063489;28;21007;-71
2022/06/30 10:15:55;;;;;;;24.70;8.77;;;29.80;31.70;;;;;;5072331;28;20414;-72
2022/06/30 10:18:26;;;;;;;12.20;7.50;;;29.70;29.90;;;;;;5071668;28;20409;-71
2022/06/30 10:20:52;;;;;;;15.07;7.80;;;29.90;30.60;;;;;;5072333;28;20433;-71
2022/06/30 10:23:22;;;;;;;16.40;7.70;;;30.30;29.40;;;;;;5067788;28;20481;-71
2022/06/30 10:25:48;;;;;;;12.57;7.23;;;30.30;28.20;;;;;;5053950;28;20703;-70
2022/06/30 10:28:19;;;;;;;14.27;7.03;;;29.30;29.30;;;;;;5071954;28;20475;-71
2022/06/30 10:30:53;;;;;;;14.50;7.67;;;29.40;30.00;;;;;;5071692;28;20432;-71
2022/06/30 10:34:00;;;;;;;13.97;7.67;;;29.80;29.80;;;;;;5072318;28;20456;-71
2022/06/30 10:36:30;;;;;;;12.47;7.63;;;30.40;29.90;;;;;;4988595;28;20440;-71
2022/06/30 10:39:04;;;;;;;14.00;7.47;;;30.80;27.00;;;;;;4990644;28;20429;-71
2022/06/30 10:41:30;;;;;;;16.83;8.00;;;30.90;28.30;;;;;;4990355;28;20453;-71
2022/06/30 10:44:04;;;;;;;12.23;7.03;;;31.50;27.00;;;;;;4973701;28;20439;-71
2022/06/30 10:46:31;;;;;;;21.43;7.57;;;31.80;26.90;;;;;;4985350;28;20309;-71
2022/06/30 10:48:57;;;;;;;17.47;7.57;;;31.80;27.50;;;;;;4970866;28;20540;-71
2022/06/30 10:51:25;;;;;;;11.73;6.20;;;32.00;26.60;;;;;;4970874;28;20993;-71
2022/06/30 10:53:51;;;;;;;15.53;6.57;;;32.00;23.70;;;;;;4970582;28;20221;-71
2022/06/30 10:56:17;;;;;;;13.73;6.53;;;32.10;24.80;;;;;;4971026;28;20438;-71
2022/06/30 10:59:04;;;;;;;15.07;6.30;;;32.10;25.10;;;;;;4987482;28;20208;-72
2022/06/30 11:01:30;;;;;;;15.53;7.00;;;32.40;26.00;;;;;;4989487;28;21026;-71
2022/06/30 11:03:56;;;;;;;9.87;6.40;;;32.50;24.20;;;;;;4972520;28;20530;-71
2022/06/30 11:06:26;;;;;;;9.73;5.80;;;32.70;23.60;;;;;;4970787;28;20214;-71
2022/06/30 11:08:57;;;;;;;17.17;5.70;;;32.90;22.70;;;;;;4970554;28;20500;-71
2022/06/30 11:11:23;;;;;;;10.40;5.93;;;33.00;22.70;;;;;;4970586;28;20525;-71
2022/06/30 11:14:11;;;;;;;20.13;6.60;;;32.60;23.30;;;;;;5047784;28;20513;-71
2022/06/30 11:16:39;;;;;;;18.07;7.07;;;32.40;23.10;;;;;;5051400;28;20221;-72
2022/06/30 11:19:13;;;;;;;9.73;6.57;;;32.10;24.10;;;;;;5051597;28;20414;-71
2022/06/30 11:21:42;;;;;;;12.80;6.90;;;31.70;24.70;;;;;;5047564;28;20429;-71
2022/06/30 11:24:09;;;;;;;10.80;7.37;;;31.60;26.00;;;;;;5046201;28;20814;-73
2022/06/30 11:29:23;;;;;;;13.93;6.83;;;31.90;27.70;;;;;;5044338;28;20960;-71
2022/06/30 11:31:50;;;;;;;13.13;6.33;;;31.90;22.60;;;;;;5051101;28;20414;-70
2022/06/30 11:34:20;;;;;;;17.90;6.37;;;32.00;24.90;;;;;;5048235;28;20434;-71
2022/06/30 11:36:45;;;;;;;8.70;6.13;;;32.80;22.50;;;;;;5043391;28;20433;-71
2022/06/30 11:39:19;;;;;;;8.90;5.90;;;34.00;20.80;;;;;;5049692;28;20492;-70
2022/06/30 11:41:56;;;;;;;9.07;6.17;;;35.00;20.00;;;;;;5049408;28;20241;-71
2022/06/30 11:44:24;;;;;;;10.30;6.33;;;35.80;20.40;;;;;;5041826;28;20468;-74
2022/06/30 11:46:53;;;;;;;10.13;5.50;;;36.30;20.10;;;;;;5038410;28;20433;-71
2022/06/30 11:49:20;;;;;;;11.53;6.03;;;36.70;19.30;;;;;;5035887;28;20453;-70
2022/06/30 11:51:46;;;;;;;11.17;5.20;;;36.70;17.60;;;;;;5047031;28;20426;-70
2022/06/30 11:54:13;;;;;;;10.77;5.27;;;36.70;15.20;;;;;;5054323;28;20521;-70
2022/06/30 11:56:56;;;;;;;10.13;5.53;;;35.60;17.60;;;;;;5043526;28;20713;-70
2022/06/30 11:59:21;;;;;;;18.40;5.47;;;34.60;19.20;;;;;;5076475;22;20439;-67
2022/06/30 12:02:05;;;;;;;13.47;5.47;;;34.30;21.20;;;;;;5026516;28;20431;-70
2022/06/30 12:04:32;;;;;;;10.07;6.17;;;34.60;18.80;;;;;;5026967;28;20180;-69
2022/06/30 12:07:00;;;;;;;8.83;5.13;;;34.00;17.20;;;;;;5030521;28;20465;-71
2022/06/30 12:09:25;;;;;;;16.50;6.10;;;34.00;19.00;;;;;;5008768;28;20459;-69
2022/06/30 12:11:52;;;;;;;11.33;5.63;;;33.60;19.40;;;;;;4991434;28;20499;-69
2022/06/30 12:14:18;;;;;;;15.90;5.77;;;32.90;22.00;;;;;;4991750;28;20225;-69
2022/06/30 12:16:44;;;;;;;12.23;6.50;;;32.30;22.30;;;;;;4996064;28;20423;-69
2022/06/30 12:19:14;;;;;;;10.37;6.40;;;32.70;23.90;;;;;;5009689;28;20235;-70
2022/06/30 12:21:40;;;;;;;14.03;6.03;;;33.30;23.50;;;;;;5008483;28;20439;-70
2022/06/30 12:24:07;;;;;;;13.80;6.07;;;33.50;20.20;;;;;;5010717;28;20450;-70
2022/06/30 12:26:33;;;;;;;13.53;6.07;;;33.70;20.90;;;;;;5004863;28;20302;-69
2022/06/30 12:28:59;;;;;;;11.37;5.90;;;34.40;18.70;;;;;;5007368;28;20467;-71
2022/06/30 12:31:26;;;;;;;11.70;5.90;;;34.80;20.30;;;;;;5006249;28;20679;-70
2022/06/30 12:33:53;;;;;;;9.17;5.40;;;35.40;17.00;;;;;;5006744;28;20196;-70
2022/06/30 12:36:19;;;;;;;12.40;6.37;;;34.30;18.10;;;;;;5009960;28;20416;-70
2022/06/30 12:38:44;;;;;;;11.60;5.60;;;34.60;18.70;;;;;;5010599;28;20446;-70
2022/06/30 12:41:13;;;;;;;7.37;5.40;;;34.70;20.50;;;;;;5010134;28;20254;-71
2022/06/30 12:43:50;;;;;;;16.73;5.80;;;34.30;20.10;;;;;;5012365;28;20216;-70
2022/06/30 12:46:17;;;;;;;11.23;5.87;;;34.50;18.30;;;;;;5010958;28;20424;-70